sensor_id;sensor_type;location;lat;lon;timestamp;pressure;altitude;pressure_sealevel;temperature;humidity
21956;BME280;11142;49.930;8.606;2023-08-20T00:01:40;100412.03;;;26.47;100.00
21956;BME280;11142;49.930;8.606;2023-08-20T00:04:10;100413.31;;;26.58;100.00
21956;BME280;11142;49.930;8.606;2023-08-20T00:06:39;100417.03;;;26.57;100.00
21956;BME280;11142;49.930;8.606;2023-08-20T00:09:10;100408.31;;;26.42;100.00
21956;BME280;11142;49.930;8.606;2023-08-20T00:11:41;100411.78;;;26.21;100.00
21956;BME280;11142;49.930;8.606;2023-08-20T00:16:40;100407.56;;;25.91;100.00
21956;BME280;11142;49.930;8.606;2023-08-20T00:19:09;100415.97;;;25.94;100.00
21956;BME280;11142;49.930;8.606;2023-08-20T00:21:41;100416.88;;;26.01;100.00
21956;BME280;11142;49.930;8.606;2023-08-20T00:24:10;100422.63;;;26.05;100.00
21956;BME280;11142;49.930;8.606;2023-08-20T00:26:40;100429.63;;;26.06;100.00
21956;BME280;11142;49.930;8.606;2023-08-20T00:29:15;100426.50;;;26.02;100.00
21956;BME280;11142;49.930;8.606;2023-08-20T00:31:43;100433.03;;;26.00;100.00
21956;BME280;11142;49.930;8.606;2023-08-20T00:34:11;100429.16;;;26.02;100.00
21956;BME280;11142;49.930;8.606;2023-08-20T00:36:39;100430.75;;;25.97;100.00
21956;BME280;11142;49.930;8.606;2023-08-20T00:39:07;100429.38;;;25.86;100.00
21956;BME280;11142;49.930;8.606;2023-08-20T00:41:36;100426.63;;;25.58;100.00
21956;BME280;11142;49.930;8.606;2023-08-20T00:44:06;100428.34;;;25.22;100.00
21956;BME280;11142;49.930;8.606;2023-08-20T00:46:34;100433.19;;;24.89;100.00
21956;BME280;11142;49.930;8.606;2023-08-20T00:49:06;100430.44;;;24.60;100.00
21956;BME280;11142;49.930;8.606;2023-08-20T00:51:36;100427.09;;;24.58;100.00
21956;BME280;11142;49.930;8.606;2023-08-20T00:54:05;100418.72;;;24.69;100.00
21956;BME280;11142;49.930;8.606;2023-08-20T00:56:35;100427.31;;;24.94;100.00
21956;BME280;11142;49.930;8.606;2023-08-20T00:59:08;100421.38;;;25.06;100.00
21956;BME280;11142;49.930;8.606;2023-08-20T01:01:41;100424.41;;;25.18;100.00
21956;BME280;11142;49.930;8.606;2023-08-20T01:04:13;100427.59;;;25.13;100.00
21956;BME280;11142;49.930;8.606;2023-08-20T04:53:58;100463.16;;;22.89;100.00
21956;BME280;11142;49.930;8.606;2023-08-20T04:56:28;100462.25;;;23.37;100.00
21956;BME280;11142;49.930;8.606;2023-08-20T04:58:56;100458.19;;;23.96;100.00
21956;BME280;11142;49.930;8.606;2023-08-20T05:01:47;100475.78;;;24.50;100.00
21956;BME280;11142;49.930;8.606;2023-08-20T05:04:19;100481.88;;;24.96;100.00
21956;BME280;11142;49.930;8.606;2023-08-20T05:06:47;100490.28;;;25.22;100.00
21956;BME280;11142;49.930;8.606;2023-08-20T05:09:18;100500.16;;;25.28;100.00
21956;BME280;11142;49.930;8.606;2023-08-20T05:11:47;100488.78;;;25.05;100.00
21956;BME280;11142;49.930;8.606;2023-08-20T05:14:15;100498.47;;;25.50;100.00
21956;BME280;11142;49.930;8.606;2023-08-20T05:16:46;100499.03;;;25.75;100.00
21956;BME280;11142;49.930;8.606;2023-08-20T05:19:14;100500.91;;;25.96;100.00
21956;BME280;11142;49.930;8.606;2023-08-20T05:21:42;100501.72;;;25.23;100.00
21956;BME280;11142;49.930;8.606;2023-08-20T05:24:10;100500.13;;;24.99;100.00
21956;BME280;11142;49.930;8.606;2023-08-20T05:26:40;100502.50;;;25.46;100.00
21956;BME280;11142;49.930;8.606;2023-08-20T05:29:09;100504.16;;;25.76;100.00
21956;BME280;11142;49.930;8.606;2023-08-20T05:31:37;100509.81;;;26.03;100.00
21956;BME280;11142;49.930;8.606;2023-08-20T05:34:06;100520.13;;;25.62;100.00
21956;BME280;11142;49.930;8.606;2023-08-20T05:36:35;100522.78;;;25.62;100.00
21956;BME280;11142;49.930;8.606;2023-08-20T05:54:01;100520.88;;;24.27;100.00
21956;BME280;11142;49.930;8.606;2023-08-20T05:56:30;100528.16;;;25.54;100.00
21956;BME280;11142;49.930;8.606;2023-08-20T05:58:58;100537.97;;;25.82;100.00
21956;BME280;11142;49.930;8.606;2023-08-20T06:01:28;100531.38;;;25.78;100.00
21956;BME280;11142;49.930;8.606;2023-08-20T06:03:57;100533.53;;;26.55;100.00
21956;BME280;11142;49.930;8.606;2023-08-20T06:06:28;100532.59;;;26.62;100.00
21956;BME280;11142;49.930;8.606;2023-08-20T06:08:57;100533.56;;;27.46;100.00
21956;BME280;11142;49.930;8.606;2023-08-20T06:11:36;100543.41;;;25.74;100.00
21956;BME280;11142;49.930;8.606;2023-08-20T06:14:04;100537.50;;;24.98;100.00
21956;BME280;11142;49.930;8.606;2023-08-20T06:16:33;100532.53;;;25.47;100.00
21956;BME280;11142;49.930;8.606;2023-08-20T06:19:01;100539.34;;;25.78;100.00
21956;BME280;11142;49.930;8.606;2023-08-20T06:21:30;100545.47;;;26.23;100.00
21956;BME280;11142;49.930;8.606;2023-08-20T06:23:59;100537.75;;;26.85;100.00
21956;BME280;11142;49.930;8.606;2023-08-20T06:26:26;100547.44;;;27.76;100.00
21956;BME280;11142;49.930;8.606;2023-08-20T06:28:56;100553.88;;;28.35;100.00
21956;BME280;11142;49.930;8.606;2023-08-20T06:31:24;100552.91;;;28.49;100.00
21956;BME280;11142;49.930;8.606;2023-08-20T06:33:53;100557.44;;;28.56;100.00
21956;BME280;11142;49.930;8.606;2023-08-20T06:36:24;100547.38;;;27.07;100.00
21956;BME280;11142;49.930;8.606;2023-08-20T06:38:52;100547.44;;;27.14;100.00
21956;BME280;11142;49.930;8.606;2023-08-20T06:41:22;100548.34;;;27.27;100.00
21956;BME280;11142;49.930;8.606;2023-08-20T06:43:50;100553.22;;;27.17;100.00
21956;BME280;11142;49.930;8.606;2023-08-20T06:46:20;100561.09;;;27.04;100.00
21956;BME280;11142;49.930;8.606;2023-08-20T06:48:51;100554.28;;;27.51;100.00
21956;BME280;11142;49.930;8.606;2023-08-20T06:51:19;100548.00;;;28.53;100.00
21956;BME280;11142;49.930;8.606;2023-08-20T06:53:47;100567.84;;;29.05;100.00
21956;BME280;11142;49.930;8.606;2023-08-20T06:56:16;100561.09;;;27.94;100.00
21956;BME280;11142;49.930;8.606;2023-08-20T06:58:44;100574.13;;;27.76;100.00
21956;BME280;11142;49.930;8.606;2023-08-20T07:01:13;100580.13;;;27.78;100.00
21956;BME280;11142;49.930;8.606;2023-08-20T07:03:43;100586.16;;;26.88;100.00
21956;BME280;11142;49.930;8.606;2023-08-20T07:06:12;100583.56;;;27.44;100.00
21956;BME280;11142;49.930;8.606;2023-08-20T07:08:43;100578.41;;;27.42;100.00
21956;BME280;11142;49.930;8.606;2023-08-20T07:11:11;100573.56;;;27.80;100.00
21956;BME280;11142;49.930;8.606;2023-08-20T07:13:52;100576.41;;;27.79;100.00
21956;BME280;11142;49.930;8.606;2023-08-20T07:16:21;100575.19;;;28.16;100.00
21956;BME280;11142;49.930;8.606;2023-08-20T07:18:52;100567.31;;;27.11;100.00
21956;BME280;11142;49.930;8.606;2023-08-20T07:21:22;100567.97;;;27.20;100.00
21956;BME280;11142;49.930;8.606;2023-08-20T07:23:52;100575.72;;;28.05;100.00
21956;BME280;11142;49.930;8.606;2023-08-20T07:26:21;100577.31;;;27.92;100.00
21956;BME280;11142;49.930;8.606;2023-08-20T07:28:52;100579.94;;;27.86;100.00
21956;BME280;11142;49.930;8.606;2023-08-20T07:31:27;100575.88;;;27.90;100.00
21956;BME280;11142;49.930;8.606;2023-08-20T07:33:59;100583.06;;;28.30;100.00
21956;BME280;11142;49.930;8.606;2023-08-20T07:36:32;100582.41;;;29.22;100.00
21956;BME280;11142;49.930;8.606;2023-08-20T07:39:01;100582.56;;;29.79;100.00
21956;BME280;11142;49.930;8.606;2023-08-20T07:41:30;100586.78;;;30.20;100.00
21956;BME280;11142;49.930;8.606;2023-08-20T07:43:59;100580.78;;;29.34;100.00
21956;BME280;11142;49.930;8.606;2023-08-20T07:46:27;100582.84;;;28.38;100.00
21956;BME280;11142;49.930;8.606;2023-08-20T07:48:58;100582.66;;;28.33;100.00
21956;BME280;11142;49.930;8.606;2023-08-20T08:32:58;100607.25;;;31.89;100.00
21956;BME280;11142;49.930;8.606;2023-08-20T08:35:28;100603.47;;;30.22;100.00
21956;BME280;11142;49.930;8.606;2023-08-20T08:37:58;100605.56;;;32.13;100.00
21956;BME280;11142;49.930;8.606;2023-08-20T08:40:28;100614.63;;;32.66;99.09
21956;BME280;11142;49.930;8.606;2023-08-20T08:42:56;100610.25;;;31.31;100.00
21956;BME280;11142;49.930;8.606;2023-08-20T08:45:25;100612.97;;;32.95;100.00
21956;BME280;11142;49.930;8.606;2023-08-20T08:47:54;100609.03;;;31.77;100.00
21956;BME280;11142;49.930;8.606;2023-08-20T08:50:26;100613.78;;;32.47;100.00
21956;BME280;11142;49.930;8.606;2023-08-20T08:52:54;100608.56;;;33.58;94.50
21956;BME280;11142;49.930;8.606;2023-08-20T08:55:23;100610.81;;;33.38;96.11
21956;BME280;11142;49.930;8.606;2023-08-20T08:57:56;100605.00;;;32.40;100.00
21956;BME280;11142;49.930;8.606;2023-08-20T09:00:24;100614.09;;;33.40;97.25
21956;BME280;11142;49.930;8.606;2023-08-20T09:02:53;100610.44;;;30.29;100.00
21956;BME280;11142;49.930;8.606;2023-08-20T09:05:21;100603.59;;;29.10;100.00
21956;BME280;11142;49.930;8.606;2023-08-20T09:07:54;100615.78;;;29.59;100.00
21956;BME280;11142;49.930;8.606;2023-08-20T09:10:25;100610.47;;;30.67;100.00
21956;BME280;11142;49.930;8.606;2023-08-20T09:12:54;100609.53;;;32.28;100.00
21956;BME280;11142;49.930;8.606;2023-08-20T09:15:30;100610.69;;;31.03;100.00
21956;BME280;11142;49.930;8.606;2023-08-20T09:18:00;100610.50;;;32.16;100.00
21956;BME280;11142;49.930;8.606;2023-08-20T10:54:28;100598.38;;;37.57;46.02
21956;BME280;11142;49.930;8.606;2023-08-20T10:56:57;100601.50;;;38.43;43.03
21956;BME280;11142;49.930;8.606;2023-08-20T10:59:27;100597.81;;;36.60;50.27
21956;BME280;11142;49.930;8.606;2023-08-20T11:01:56;100600.75;;;38.78;43.60
21956;BME280;11142;49.930;8.606;2023-08-20T11:04:27;100601.38;;;41.03;36.36
21956;BME280;11142;49.930;8.606;2023-08-20T11:07:00;100606.59;;;40.55;36.12
21956;BME280;11142;49.930;8.606;2023-08-20T11:09:33;100613.88;;;41.61;32.05
21956;BME280;11142;49.930;8.606;2023-08-20T11:12:04;100612.28;;;40.98;36.34
21956;BME280;11142;49.930;8.606;2023-08-20T11:14:35;100608.53;;;41.75;34.16
21956;BME280;11142;49.930;8.606;2023-08-20T11:17:07;100603.44;;;39.49;37.20
21956;BME280;11142;49.930;8.606;2023-08-20T11:19:35;100606.56;;;41.28;34.85
21956;BME280;11142;49.930;8.606;2023-08-20T11:22:04;100614.22;;;42.82;31.54
21956;BME280;11142;49.930;8.606;2023-08-20T11:24:34;100604.31;;;45.52;28.64
21956;BME280;11142;49.930;8.606;2023-08-20T11:27:09;100603.09;;;43.84;29.18
21956;BME280;11142;49.930;8.606;2023-08-20T11:29:42;100611.56;;;41.97;32.64
21956;BME280;11142;49.930;8.606;2023-08-20T11:32:13;100601.91;;;42.66;31.57
21956;BME280;11142;49.930;8.606;2023-08-20T11:34:42;100600.97;;;40.80;33.93
21956;BME280;11142;49.930;8.606;2023-08-20T11:37:10;100607.56;;;42.88;30.99
21956;BME280;11142;49.930;8.606;2023-08-20T11:39:41;100612.63;;;44.00;28.94
21956;BME280;11142;49.930;8.606;2023-08-20T11:42:11;100610.19;;;43.12;29.39
21956;BME280;11142;49.930;8.606;2023-08-20T11:44:43;100612.47;;;46.82;26.28
21956;BME280;11142;49.930;8.606;2023-08-20T11:47:15;100617.16;;;46.82;24.09
21956;BME280;11142;49.930;8.606;2023-08-20T11:49:44;100605.63;;;45.02;26.41
21956;BME280;11142;49.930;8.606;2023-08-20T11:52:12;100617.44;;;47.61;23.35
21956;BME280;11142;49.930;8.606;2023-08-20T11:54:49;100610.09;;;50.43;21.83
21956;BME280;11142;49.930;8.606;2023-08-20T11:57:17;100616.50;;;52.70;19.65
21956;BME280;11142;49.930;8.606;2023-08-20T11:59:46;100601.72;;;47.62;23.21
21956;BME280;11142;49.930;8.606;2023-08-20T12:02:25;100580.25;;;40.84;31.27
21956;BME280;11142;49.930;8.606;2023-08-20T12:05:06;100574.03;;;38.29;38.63
21956;BME280;11142;49.930;8.606;2023-08-20T12:07:35;100574.19;;;41.50;33.59
21956;BME280;11142;49.930;8.606;2023-08-20T12:12:55;100595.00;;;49.89;21.84
21956;BME280;11142;49.930;8.606;2023-08-20T12:15:25;100603.59;;;52.24;18.77
21956;BME280;11142;49.930;8.606;2023-08-20T12:17:58;100596.88;;;50.37;20.50
21956;BME280;11142;49.930;8.606;2023-08-20T12:20:28;100572.81;;;43.80;27.87
21956;BME280;11142;49.930;8.606;2023-08-20T12:22:58;100576.59;;;44.78;27.16
21956;BME280;11142;49.930;8.606;2023-08-20T12:25:30;100581.09;;;46.32;25.42
21956;BME280;11142;49.930;8.606;2023-08-20T12:28:01;100572.19;;;43.97;28.24
21956;BME280;11142;49.930;8.606;2023-08-20T12:30:32;100572.94;;;47.88;24.05
21956;BME280;11142;49.930;8.606;2023-08-20T12:33:05;100568.63;;;44.90;26.34
21956;BME280;11142;49.930;8.606;2023-08-20T12:35:35;100562.66;;;42.94;30.18
21956;BME280;11142;49.930;8.606;2023-08-20T12:38:03;100557.00;;;41.26;32.37
21956;BME280;11142;49.930;8.606;2023-08-20T12:40:34;100580.56;;;48.33;23.72
21956;BME280;11142;49.930;8.606;2023-08-20T12:43:11;100594.13;;;52.25;20.06
21956;BME280;11142;49.930;8.606;2023-08-20T12:45:40;100594.69;;;53.37;18.25
21956;BME280;11142;49.930;8.606;2023-08-20T12:48:09;100592.16;;;54.70;17.19
21956;BME280;11142;49.930;8.606;2023-08-20T12:50:38;100566.00;;;45.78;24.84
21956;BME280;11142;49.930;8.606;2023-08-20T12:53:06;100556.84;;;41.89;30.44
21956;BME280;11142;49.930;8.606;2023-08-20T12:55:35;100551.16;;;45.31;26.49
21956;BME280;11142;49.930;8.606;2023-08-20T12:58:22;100558.31;;;50.01;21.60
21956;BME280;11142;49.930;8.606;2023-08-20T13:01:05;100565.72;;;50.80;20.23
21956;BME280;11142;49.930;8.606;2023-08-20T13:03:35;100565.59;;;54.10;18.05
21956;BME280;11142;49.930;8.606;2023-08-20T13:06:04;100570.56;;;53.67;17.12
21956;BME280;11142;49.930;8.606;2023-08-20T13:08:33;100560.63;;;51.29;18.52
21956;BME280;11142;49.930;8.606;2023-08-20T13:11:02;100548.78;;;49.25;20.21
21956;BME280;11142;49.930;8.606;2023-08-20T13:13:37;100540.22;;;44.56;24.45
21956;BME280;11142;49.930;8.606;2023-08-20T13:16:07;100538.75;;;43.73;24.51
21956;BME280;11142;49.930;8.606;2023-08-20T13:18:36;100534.69;;;45.00;23.91
21956;BME280;11142;49.930;8.606;2023-08-20T13:21:06;100537.94;;;46.50;22.96
21956;BME280;11142;49.930;8.606;2023-08-20T13:23:36;100532.31;;;44.40;23.47
21956;BME280;11142;49.930;8.606;2023-08-20T13:26:08;100534.91;;;43.87;24.74
21956;BME280;11142;49.930;8.606;2023-08-20T14:24:13;100503.41;;;43.49;25.96
21956;BME280;11142;49.930;8.606;2023-08-20T14:26:44;100492.31;;;43.95;25.77
21956;BME280;11142;49.930;8.606;2023-08-20T14:29:13;100508.16;;;45.66;24.01
21956;BME280;11142;49.930;8.606;2023-08-20T14:31:43;100509.44;;;47.26;22.05
21956;BME280;11142;49.930;8.606;2023-08-20T14:34:12;100516.09;;;50.71;19.48
21956;BME280;11142;49.930;8.606;2023-08-20T14:36:40;100517.13;;;53.51;17.54
21956;BME280;11142;49.930;8.606;2023-08-20T14:39:10;100533.06;;;54.87;16.32
21956;BME280;11142;49.930;8.606;2023-08-20T14:41:43;100532.19;;;55.92;15.34
21956;BME280;11142;49.930;8.606;2023-08-20T14:44:12;100531.22;;;56.85;14.78
21956;BME280;11142;49.930;8.606;2023-08-20T14:46:43;100516.34;;;51.79;16.88
21956;BME280;11142;49.930;8.606;2023-08-20T14:49:12;100488.31;;;45.21;22.83
21956;BME280;11142;49.930;8.606;2023-08-20T14:51:45;100483.16;;;43.64;25.03
21956;BME280;11142;49.930;8.606;2023-08-20T14:54:14;100483.59;;;45.61;23.04
21956;BME280;11142;49.930;8.606;2023-08-20T14:56:47;100485.31;;;45.31;23.56
21956;BME280;11142;49.930;8.606;2023-08-20T14:59:18;100477.91;;;43.40;25.60
21956;BME280;11142;49.930;8.606;2023-08-20T15:01:46;100480.59;;;44.17;24.74
21956;BME280;11142;49.930;8.606;2023-08-20T15:04:16;100488.66;;;45.76;23.59
21956;BME280;11142;49.930;8.606;2023-08-20T15:06:46;100473.72;;;43.70;25.06
21956;BME280;11142;49.930;8.606;2023-08-20T15:09:17;100484.78;;;46.54;22.98
21956;BME280;11142;49.930;8.606;2023-08-20T15:14:37;100459.97;;;42.61;26.92
21956;BME280;11142;49.930;8.606;2023-08-20T15:17:06;100474.97;;;47.58;21.55
21956;BME280;11142;49.930;8.606;2023-08-20T15:19:36;100470.72;;;43.44;25.13
21956;BME280;11142;49.930;8.606;2023-08-20T15:22:09;100468.06;;;43.53;25.14
21956;BME280;11142;49.930;8.606;2023-08-20T15:24:38;100476.69;;;45.80;22.64
21956;BME280;11142;49.930;8.606;2023-08-20T15:27:25;100478.97;;;48.11;21.27
21956;BME280;11142;49.930;8.606;2023-08-20T15:30:14;100468.56;;;44.71;24.11
21956;BME280;11142;49.930;8.606;2023-08-20T15:32:52;100481.19;;;46.71;22.24
21956;BME280;11142;49.930;8.606;2023-08-20T15:35:24;100468.34;;;43.65;25.23
21956;BME280;11142;49.930;8.606;2023-08-20T15:37:54;100476.41;;;45.82;23.20
21956;BME280;11142;49.930;8.606;2023-08-20T15:40:22;100472.97;;;45.20;23.48
21956;BME280;11142;49.930;8.606;2023-08-20T15:43:11;100473.41;;;43.17;25.37
21956;BME280;11142;49.930;8.606;2023-08-20T15:45:45;100463.38;;;44.03;25.54
21956;BME280;11142;49.930;8.606;2023-08-20T15:48:23;100468.72;;;42.76;27.21
21956;BME280;11142;49.930;8.606;2023-08-20T15:51:27;100475.66;;;46.79;22.11
21956;BME280;11142;49.930;8.606;2023-08-20T15:54:10;100483.91;;;49.19;20.31
21956;BME280;11142;49.930;8.606;2023-08-20T15:56:46;100479.91;;;50.33;19.15
21956;BME280;11142;49.930;8.606;2023-08-20T15:59:20;100477.13;;;49.17;19.69
21956;BME280;11142;49.930;8.606;2023-08-20T16:01:57;100485.91;;;49.19;19.90
21956;BME280;11142;49.930;8.606;2023-08-20T16:04:27;100466.19;;;45.74;22.91
21956;BME280;11142;49.930;8.606;2023-08-20T16:07:29;100464.84;;;44.98;23.86
21956;BME280;11142;49.930;8.606;2023-08-20T16:10:03;100458.78;;;46.00;23.11
21956;BME280;11142;49.930;8.606;2023-08-20T16:12:51;100455.19;;;42.99;25.59
21956;BME280;11142;49.930;8.606;2023-08-20T16:15:20;100455.13;;;40.93;28.85
21956;BME280;11142;49.930;8.606;2023-08-20T16:20:45;100448.78;;;42.89;26.42
21956;BME280;11142;49.930;8.606;2023-08-20T16:23:16;100454.06;;;42.86;26.41
21956;BME280;11142;49.930;8.606;2023-08-20T16:25:45;100464.03;;;45.45;23.84
21956;BME280;11142;49.930;8.606;2023-08-20T16:28:19;100468.81;;;46.94;22.54
21956;BME280;11142;49.930;8.606;2023-08-20T16:30:59;100466.28;;;46.80;22.50
21956;BME280;11142;49.930;8.606;2023-08-20T16:33:27;100462.63;;;45.65;23.32
21956;BME280;11142;49.930;8.606;2023-08-20T16:36:00;100447.59;;;41.99;28.32
21956;BME280;11142;49.930;8.606;2023-08-20T16:38:33;100448.56;;;41.89;28.91
21956;BME280;11142;49.930;8.606;2023-08-20T16:41:02;100449.28;;;40.47;30.03
21956;BME280;11142;49.930;8.606;2023-08-20T16:43:32;100444.25;;;39.92;30.73
21956;BME280;11142;49.930;8.606;2023-08-20T16:46:02;100454.16;;;40.55;30.67
21956;BME280;11142;49.930;8.606;2023-08-20T16:48:38;100455.47;;;41.15;29.62
21956;BME280;11142;49.930;8.606;2023-08-20T16:51:08;100449.31;;;40.13;31.52
21956;BME280;11142;49.930;8.606;2023-08-20T16:53:47;100452.47;;;42.34;28.82
21956;BME280;11142;49.930;8.606;2023-08-20T16:56:15;100458.69;;;42.40;28.15
21956;BME280;11142;49.930;8.606;2023-08-20T16:58:45;100447.25;;;42.70;28.42
21956;BME280;11142;49.930;8.606;2023-08-20T17:01:16;100450.19;;;42.73;27.34
21956;BME280;11142;49.930;8.606;2023-08-20T17:03:47;100448.13;;;43.11;27.32
21956;BME280;11142;49.930;8.606;2023-08-20T17:06:19;100452.03;;;43.73;26.29
21956;BME280;11142;49.930;8.606;2023-08-20T17:08:49;100445.09;;;43.40;26.56
21956;BME280;11142;49.930;8.606;2023-08-20T17:11:18;100443.19;;;42.67;27.54
21956;BME280;11142;49.930;8.606;2023-08-20T17:13:47;100440.94;;;43.02;27.21
21956;BME280;11142;49.930;8.606;2023-08-20T17:16:30;100437.84;;;42.62;27.48
21956;BME280;11142;49.930;8.606;2023-08-20T17:19:00;100441.56;;;41.59;29.63
21956;BME280;11142;49.930;8.606;2023-08-20T17:21:30;100439.66;;;41.41;30.27
21956;BME280;11142;49.930;8.606;2023-08-20T17:23:59;100442.44;;;42.48;28.88
21956;BME280;11142;49.930;8.606;2023-08-20T17:26:28;100440.03;;;43.06;27.96
21956;BME280;11142;49.930;8.606;2023-08-20T17:28:56;100446.69;;;42.54;28.24
21956;BME280;11142;49.930;8.606;2023-08-20T17:31:26;100442.09;;;41.61;29.19
21956;BME280;11142;49.930;8.606;2023-08-20T17:33:55;100442.53;;;41.50;30.00
21956;BME280;11142;49.930;8.606;2023-08-20T17:36:27;100440.38;;;41.23;29.77
21956;BME280;11142;49.930;8.606;2023-08-20T17:39:13;100433.00;;;40.42;31.55
21956;BME280;11142;49.930;8.606;2023-08-20T17:41:42;100432.41;;;40.16;31.67
21956;BME280;11142;49.930;8.606;2023-08-20T17:44:12;100435.22;;;39.96;32.45
21956;BME280;11142;49.930;8.606;2023-08-20T17:46:41;100437.00;;;39.77;33.15
21956;BME280;11142;49.930;8.606;2023-08-20T17:49:14;100434.06;;;38.84;35.65
21956;BME280;11142;49.930;8.606;2023-08-20T17:51:43;100429.44;;;38.19;38.34
21956;BME280;11142;49.930;8.606;2023-08-20T17:54:14;100427.22;;;37.86;39.96
21956;BME280;11142;49.930;8.606;2023-08-20T17:56:45;100421.75;;;37.08;41.79
21956;BME280;11142;49.930;8.606;2023-08-20T17:59:16;100424.88;;;36.90;42.57
21956;BME280;11142;49.930;8.606;2023-08-20T18:01:45;100419.94;;;36.45;43.98
21956;BME280;11142;49.930;8.606;2023-08-20T18:04:22;100415.34;;;36.46;46.10
21956;BME280;11142;49.930;8.606;2023-08-20T18:28:30;100439.44;;;32.39;91.48
21956;BME280;11142;49.930;8.606;2023-08-20T18:31:00;100437.56;;;32.28;95.96
21956;BME280;11142;49.930;8.606;2023-08-20T18:33:29;100439.13;;;32.06;87.91
21956;BME280;11142;49.930;8.606;2023-08-20T18:35:58;100445.06;;;31.60;91.75
21956;BME280;11142;49.930;8.606;2023-08-20T19:13:32;100495.34;;;31.28;100.00
21956;BME280;11142;49.930;8.606;2023-08-20T19:16:01;100493.31;;;31.24;100.00
21956;BME280;11142;49.930;8.606;2023-08-20T19:18:32;100496.44;;;31.21;100.00
21956;BME280;11142;49.930;8.606;2023-08-20T19:21:00;100494.66;;;31.15;100.00
21956;BME280;11142;49.930;8.606;2023-08-20T19:23:28;100494.78;;;31.01;100.00
21956;BME280;11142;49.930;8.606;2023-08-20T19:25:56;100508.47;;;30.62;100.00
21956;BME280;11142;49.930;8.606;2023-08-20T19:28:25;100502.38;;;30.48;100.00
21956;BME280;11142;49.930;8.606;2023-08-20T19:30:59;100507.59;;;30.43;100.00
21956;BME280;11142;49.930;8.606;2023-08-20T19:33:29;100509.59;;;30.48;100.00
21956;BME280;11142;49.930;8.606;2023-08-20T19:36:01;100513.97;;;30.36;100.00
21956;BME280;11142;49.930;8.606;2023-08-20T19:38:30;100519.06;;;30.13;100.00
21956;BME280;11142;49.930;8.606;2023-08-20T19:40:58;100522.41;;;30.01;100.00
21956;BME280;11142;49.930;8.606;2023-08-20T19:43:27;100518.94;;;29.88;100.00
21956;BME280;11142;49.930;8.606;2023-08-20T19:45:56;100519.06;;;28.76;100.00
21956;BME280;11142;49.930;8.606;2023-08-20T19:48:29;100514.22;;;28.26;100.00
21956;BME280;11142;49.930;8.606;2023-08-20T19:51:01;100519.03;;;27.96;100.00
21956;BME280;11142;49.930;8.606;2023-08-20T19:53:31;100524.09;;;28.25;100.00
21956;BME280;11142;49.930;8.606;2023-08-20T19:56:02;100524.97;;;28.59;100.00
21956;BME280;11142;49.930;8.606;2023-08-20T19:58:35;100520.25;;;28.54;100.00
21956;BME280;11142;49.930;8.606;2023-08-20T20:01:07;100521.56;;;28.84;100.00
21956;BME280;11142;49.930;8.606;2023-08-20T20:03:37;100524.00;;;29.12;100.00
21956;BME280;11142;49.930;8.606;2023-08-20T20:06:06;100527.72;;;29.24;100.00
21956;BME280;11142;49.930;8.606;2023-08-20T20:08:34;100533.88;;;29.38;100.00
21956;BME280;11142;49.930;8.606;2023-08-20T20:11:03;100539.03;;;29.39;100.00
21956;BME280;11142;49.930;8.606;2023-08-20T20:13:34;100539.22;;;29.05;100.00
21956;BME280;11142;49.930;8.606;2023-08-20T20:16:19;100535.34;;;29.08;100.00
21956;BME280;11142;49.930;8.606;2023-08-20T20:22:26;100536.16;;;28.95;100.00
21956;BME280;11142;49.930;8.606;2023-08-20T20:25:12;100537.59;;;29.11;100.00
21956;BME280;11142;49.930;8.606;2023-08-20T20:28:07;100545.19;;;29.14;100.00
21956;BME280;11142;49.930;8.606;2023-08-20T20:30:35;100538.81;;;29.15;100.00
21956;BME280;11142;49.930;8.606;2023-08-20T20:33:07;100541.06;;;29.18;100.00
21956;BME280;11142;49.930;8.606;2023-08-20T20:35:35;100544.97;;;29.15;100.00
21956;BME280;11142;49.930;8.606;2023-08-20T20:38:04;100548.69;;;29.08;100.00
21956;BME280;11142;49.930;8.606;2023-08-20T20:40:32;100548.28;;;29.04;100.00
21956;BME280;11142;49.930;8.606;2023-08-20T20:43:00;100543.34;;;28.88;100.00
21956;BME280;11142;49.930;8.606;2023-08-20T20:45:31;100557.53;;;28.82;100.00
21956;BME280;11142;49.930;8.606;2023-08-20T20:48:00;100550.75;;;28.73;100.00
21956;BME280;11142;49.930;8.606;2023-08-20T20:50:28;100553.19;;;28.68;100.00
21956;BME280;11142;49.930;8.606;2023-08-20T20:52:56;100549.03;;;28.59;100.00
21956;BME280;11142;49.930;8.606;2023-08-20T20:55:25;100552.91;;;28.49;100.00
21956;BME280;11142;49.930;8.606;2023-08-20T20:57:53;100544.69;;;28.58;100.00
21956;BME280;11142;49.930;8.606;2023-08-20T21:00:21;100550.03;;;28.58;100.00
21956;BME280;11142;49.930;8.606;2023-08-20T21:02:50;100547.84;;;28.68;100.00
21956;BME280;11142;49.930;8.606;2023-08-20T21:05:18;100556.88;;;28.73;100.00
21956;BME280;11142;49.930;8.606;2023-08-20T21:07:46;100560.19;;;28.69;100.00
21956;BME280;11142;49.930;8.606;2023-08-20T21:10:14;100557.66;;;28.61;100.00
21956;BME280;11142;49.930;8.606;2023-08-20T21:12:44;100559.28;;;28.48;100.00
21956;BME280;11142;49.930;8.606;2023-08-20T21:15:22;100559.22;;;28.29;100.00
21956;BME280;11142;49.930;8.606;2023-08-20T21:18:05;100560.75;;;27.41;100.00
21956;BME280;11142;49.930;8.606;2023-08-20T21:20:34;100548.56;;;26.62;100.00
21956;BME280;11142;49.930;8.606;2023-08-20T21:23:03;100541.28;;;26.50;100.00
21956;BME280;11142;49.930;8.606;2023-08-20T21:25:33;100545.38;;;26.88;100.00
21956;BME280;11142;49.930;8.606;2023-08-20T21:28:12;100546.78;;;27.12;100.00
21956;BME280;11142;49.930;8.606;2023-08-20T21:30:42;100546.88;;;27.25;100.00